Time;durP1;ratioP1;P1;durP2;ratioP2;P2;SDS_P1;SDS_P2;PMS_P1;PMS_P2;Temp;Humidity;BMP_temperature;BMP_pressure;BME280_temperature;BME280_humidity;BME280_pressure;Samples;Min_cycle;Max_cycle;Signal;HPM_P1;HPM_P2
2021/05/06 00:01:52;;;;;;;;;;;;;;;;;;5032376;28;19905;-59
2021/05/06 00:33:47;;;;;;;;;;;;;;;;;;5000690;28;19905;-59
2021/05/06 00:36:16;;;;;;;;;;;;;;;;;;5031731;28;19916;-60
2021/05/06 00:38:49;;;;;;;;;;;;;;;;;;5031603;28;19932;-59
2021/05/06 00:41:40;;;;;;;;;;;;;;;;;;5032537;28;19905;-59
2021/05/06 00:44:55;;;;;;;;;;;;;;;;;;5031667;28;19911;-59
2021/05/06 00:58:02;;;;;;;;;;;;;;;;;;5031565;28;19905;-59
2021/05/06 01:00:52;;;;;;;;;;;;;;;;;;5031275;28;19911;-58
2021/05/06 01:05:53;;;;;;;;;;;;;;;;;;5034803;27;19956;-60
2021/05/06 01:08:25;;;;;;;;;;;;;;;;;;5031299;28;19904;-60
2021/05/06 01:11:03;;;;;;;;;;;;;;;;;;5031140;28;19936;-59
2021/05/06 01:13:32;;;;;;;;;;;;;;;;;;5031261;28;19957;-59
2021/05/06 01:15:58;;;;;;;;;;;;;;;;;;5031152;28;19932;-58
2021/05/06 01:18:24;;;;;;;;;;;;;;;;;;5031127;28;19919;-59
2021/05/06 01:20:54;;;;;;;;;;;;;;;;;;5031512;28;19909;-61
2021/05/06 01:23:21;;;;;;;;;;;;;;;;;;5031046;28;19984;-59
2021/05/06 01:25:58;;;;;;;;;;;;;;;;;;5031004;28;19905;-59
2021/05/06 01:28:28;;;;;;;;;;;;;;;;;;5031032;28;19905;-59
2021/05/06 01:31:08;;;;;;;;;;;;;;;;;;5030857;28;19917;-58
2021/05/06 01:33:49;;;;;;;;;;;;;;;;;;5030881;28;19912;-58
2021/05/06 01:36:19;;;;;;;;;;;;;;;;;;5013187;28;20381;-58
2021/05/06 01:41:46;;;;;;;;;;;;;;;;;;5030839;28;19911;-56
2021/05/06 01:46:53;;;;;;;;;;;;;;;;;;5030740;28;19925;-59
2021/05/06 01:49:41;;;;;;;;;;;;;;;;;;5031037;28;20005;-58
2021/05/06 01:57:47;;;;;;;;;;;;;;;;;;5030537;28;20004;-58
2021/05/06 02:00:17;;;;;;;;;;;;;;;;;;5030472;28;19912;-59
2021/05/06 02:02:43;;;;;;;;;;;;;;;;;;5030537;28;20387;-58
2021/05/06 02:05:09;;;;;;;;;;;;;;;;;;5033128;27;19920;-58
2021/05/06 02:07:38;;;;;;;;;;;;;;;;;;5030498;28;19905;-59
2021/05/06 02:10:05;;;;;;;;;;;;;;;;;;5030328;28;19937;-58
2021/05/06 02:12:31;;;;;;;;;;;;;;;;;;5030358;28;19912;-59
2021/05/06 02:15:04;;;;;;;;;;;;;;;;;;5030283;28;19940;-59
2021/05/06 02:17:30;;;;;;;;;;;;;;;;;;5030351;28;20113;-59
2021/05/06 02:19:57;;;;;;;;;;;;;;;;;;5030242;28;19911;-58
2021/05/06 02:22:23;;;;;;;;;;;;;;;;;;5030261;28;19909;-60
2021/05/06 02:24:49;;;;;;;;;;;;;;;;;;5030466;28;19906;-60
2021/05/06 02:27:16;;;;;;;;;;;;;;;;;;5030190;28;20376;-59
2021/05/06 02:29:42;;;;;;;;;;;;;;;;;;5030128;28;19905;-58
2021/05/06 02:32:08;;;;;;;;;;;;;;;;;;5030039;28;20279;-58
2021/05/06 02:34:34;;;;;;;;;;;;;;;;;;5030096;28;19905;-59
2021/05/06 02:37:01;;;;;;;;;;;;;;;;;;5030117;28;20263;-59
2021/05/06 02:39:27;;;;;;;;;;;;;;;;;;5030082;28;19928;-59
2021/05/06 02:41:53;;;;;;;;;;;;;;;;;;5012453;28;20348;-61
2021/05/06 02:44:20;;;;;;;;;;;;;;;;;;5012327;28;19997;-59
2021/05/06 02:46:46;;;;;;;;;;;;;;;;;;5030003;28;20271;-59
2021/05/06 02:49:12;;;;;;;;;;;;;;;;;;5029991;28;19905;-59
2021/05/06 02:51:48;;;;;;;;;;;;;;;;;;5029802;28;19913;-59
2021/05/06 02:54:14;;;;;;;;;;;;;;;;;;5029872;28;20381;-59
2021/05/06 03:02:48;;;;;;;;;;;;;;;;;;4968879;28;19975;-60
2021/05/06 03:05:14;;;;;;;;;;;;;;;;;;5018476;27;20347;-60
2021/05/06 03:07:44;;;;;;;;;;;;;;;;;;5015517;28;19905;-60
2021/05/06 03:13:00;;;;;;;;;;;;;;;;;;5033049;28;19905;-60
2021/05/06 03:23:24;;;;;;;;;;;;;;;;;;5032870;28;19905;-60
2021/05/06 03:25:50;;;;;;;;;;;;;;;;;;5032891;28;19920;-60
2021/05/06 03:28:30;;;;;;;;;;;;;;;;;;5032870;28;20056;-59
2021/05/06 03:31:12;;;;;;;;;;;;;;;;;;5032766;28;19913;-60
2021/05/06 03:42:19;;;;;;;;;;;;;;;;;;5032724;28;19912;-60
2021/05/06 03:44:55;;;;;;;;;;;;;;;;;;5032589;28;19905;-60
2021/05/06 03:47:53;;;;;;;;;;;;;;;;;;5032595;28;19949;-60
2021/05/06 04:12:22;;;;;;;;;;;;;;;;;;5032173;28;19957;-62
2021/05/06 04:38:46;;;;;;;;;;;;;;;;;;5031757;28;19920;-62
2021/05/06 04:41:29;;;;;;;;;;;;;;;;;;5031807;28;19912;-62
2021/05/06 04:46:43;;;;;;;;;;;;;;;;;;5031772;28;20051;-62
2021/05/06 04:54:43;;;;;;;;;;;;;;;;;;5031516;28;19949;-60
2021/05/06 05:04:59;;;;;;;;;;;;;;;;;;5031992;28;19959;-60
2021/05/06 05:07:30;;;;;;;;;;;;;;;;;;5031385;28;20274;-60
2021/05/06 05:18:47;;;;;;;;;;;;;;;;;;5071627;28;19955;-60
2021/05/06 05:23:49;;;;;;;;;;;;;;;;;;5047330;28;19905;-60
2021/05/06 05:26:15;;;;;;;;;;;;;;;;;;5031057;28;19995;-60
2021/05/06 05:28:41;;;;;;;;;;;;;;;;;;5029924;28;20316;-60
2021/05/06 05:31:08;;;;;;;;;;;;;;;;;;5030912;28;20390;-60
2021/05/06 05:33:40;;;;;;;;;;;;;;;;;;5030884;28;19905;-60
2021/05/06 05:36:14;;;;;;;;;;;;;;;;;;5030830;28;19905;-60
2021/05/06 05:44:30;;;;;;;;;;;;;;;;;;5030703;28;19912;-60
2021/05/06 05:54:54;;;;;;;;;;;;;;;;;;5030656;28;20011;-60
2021/05/06 05:57:20;;;;;;;;;;;;;;;;;;5030588;28;20314;-60
2021/05/06 05:59:47;;;;;;;;;;;;;;;;;;5030559;28;19911;-60
2021/05/06 06:02:13;;;;;;;;;;;;;;;;;;5030591;28;19913;-60
2021/05/06 06:04:40;;;;;;;;;;;;;;;;;;5030502;28;19978;-60
2021/05/06 06:07:06;;;;;;;;;;;;;;;;;;5033304;27;19917;-61
2021/05/06 06:09:32;;;;;;;;;;;;;;;;;;5030524;28;19955;-60
2021/05/06 06:11:59;;;;;;;;;;;;;;;;;;5030347;28;20007;-60
2021/05/06 06:17:10;;;;;;;;;;;;;;;;;;5030461;28;19920;-60
2021/05/06 06:19:38;;;;;;;;;;;;;;;;;;5030388;28;20420;-60
2021/05/06 06:22:08;;;;;;;;;;;;;;;;;;5030337;28;19905;-60
2021/05/06 06:24:34;;;;;;;;;;;;;;;;;;5030319;28;19909;-59
2021/05/06 06:27:00;;;;;;;;;;;;;;;;;;5030292;28;20027;-60
2021/05/06 06:29:32;;;;;;;;;;;;;;;;;;5030201;28;20284;-60
2021/05/06 06:31:58;;;;;;;;;;;;;;;;;;5030120;28;20377;-60
2021/05/06 06:34:24;;;;;;;;;;;;;;;;;;5030051;28;19905;-60
2021/05/06 06:36:51;;;;;;;;;;;;;;;;;;5030138;28;20000;-60
2021/05/06 06:39:17;;;;;;;;;;;;;;;;;;5031114;28;20415;-60
2021/05/06 06:41:43;;;;;;;;;;;;;;;;;;5033491;28;19909;-59
2021/05/06 06:44:10;;;;;;;;;;;;;;;;;;5033856;28;20240;-60
2021/05/06 06:46:37;;;;;;;;;;;;;;;;;;5033557;28;20380;-60
2021/05/06 06:49:03;;;;;;;;;;;;;;;;;;5033534;28;19909;-60
2021/05/06 06:51:30;;;;;;;;;;;;;;;;;;5033380;28;19966;-60
2021/05/06 06:53:56;;;;;;;;;;;;;;;;;;5033357;28;19905;-60
2021/05/06 06:56:23;;;;;;;;;;;;;;;;;;5033303;28;19912;-60
2021/05/06 06:58:51;;;;;;;;;;;;;;;;;;5033342;28;19999;-60
2021/05/06 07:01:17;;;;;;;;;;;;;;;;;;5033335;28;19905;-60
2021/05/06 07:03:43;;;;;;;;;;;;;;;;;;5033188;28;19909;-60
2021/05/06 07:06:10;;;;;;;;;;;;;;;;;;5036925;27;19928;-60
2021/05/06 07:08:38;;;;;;;;;;;;;;;;;;5033241;28;19905;-60
2021/05/06 07:11:05;;;;;;;;;;;;;;;;;;5033062;28;19913;-60
2021/05/06 07:13:31;;;;;;;;;;;;;;;;;;5033081;28;20000;-60
2021/05/06 07:15:57;;;;;;;;;;;;;;;;;;5033065;28;19912;-60
2021/05/06 07:18:23;;;;;;;;;;;;;;;;;;5032991;28;19909;-60
2021/05/06 07:20:50;;;;;;;;;;;;;;;;;;5033002;28;19905;-60
2021/05/06 07:23:19;;;;;;;;;;;;;;;;;;5033007;28;20355;-60
2021/05/06 07:25:45;;;;;;;;;;;;;;;;;;5032963;28;19905;-60
2021/05/06 07:28:11;;;;;;;;;;;;;;;;;;5032907;28;20385;-60
2021/05/06 07:30:37;;;;;;;;;;;;;;;;;;5032770;28;20351;-60
2021/05/06 07:33:04;;;;;;;;;;;;;;;;;;5032801;28;19909;-60
2021/05/06 07:35:30;;;;;;;;;;;;;;;;;;5033023;28;19949;-60
2021/05/06 07:37:56;;;;;;;;;;;;;;;;;;5032734;28;19905;-60
2021/05/06 07:40:23;;;;;;;;;;;;;;;;;;5032685;28;20271;-60
2021/05/06 07:42:49;;;;;;;;;;;;;;;;;;5032743;28;19964;-59
2021/05/06 07:45:15;;;;;;;;;;;;;;;;;;5032500;28;19912;-60
2021/05/06 07:47:41;;;;;;;;;;;;;;;;;;5032562;28;19905;-60
2021/05/06 07:50:08;;;;;;;;;;;;;;;;;;5032151;28;19913;-60
2021/05/06 07:52:35;;;;;;;;;;;;;;;;;;5032035;28;19911;-59
2021/05/06 07:55:01;;;;;;;;;;;;;;;;;;5032470;28;19912;-60
2021/05/06 07:57:27;;;;;;;;;;;;;;;;;;5032358;28;19975;-59
2021/05/06 07:59:53;;;;;;;;;;;;;;;;;;5032439;28;19945;-60
2021/05/06 08:02:21;;;;;;;;;;;;;;;;;;5032340;28;19995;-60
2021/05/06 08:04:47;;;;;;;;;;;;;;;;;;5032299;28;19905;-60
2021/05/06 08:07:13;;;;;;;;;;;;;;;;;;5035084;27;20279;-60
2021/05/06 08:09:40;;;;;;;;;;;;;;;;;;5032273;28;19941;-60
2021/05/06 08:12:07;;;;;;;;;;;;;;;;;;5032197;28;19913;-60
2021/05/06 08:14:33;;;;;;;;;;;;;;;;;;5032236;28;20004;-59
2021/05/06 08:16:59;;;;;;;;;;;;;;;;;;5032191;28;19905;-60
2021/05/06 08:19:26;;;;;;;;;;;;;;;;;;5032162;28;19913;-60
2021/05/06 08:21:52;;;;;;;;;;;;;;;;;;5032124;28;20355;-60
2021/05/06 08:24:18;;;;;;;;;;;;;;;;;;5031952;28;19912;-60
2021/05/06 08:26:45;;;;;;;;;;;;;;;;;;5032032;28;20286;-60
2021/05/06 08:29:11;;;;;;;;;;;;;;;;;;5032076;28;19912;-60
2021/05/06 08:31:37;;;;;;;;;;;;;;;;;;5031852;28;20029;-60
2021/05/06 08:34:03;;;;;;;;;;;;;;;;;;5031878;28;19916;-59
2021/05/06 08:36:30;;;;;;;;;;;;;;;;;;5031873;28;19996;-60
2021/05/06 08:38:56;;;;;;;;;;;;;;;;;;5031834;28;20313;-60
2021/05/06 08:41:23;;;;;;;;;;;;;;;;;;5031796;28;19912;-60
2021/05/06 08:43:55;;;;;;;;;;;;;;;;;;5031626;28;19905;-60
2021/05/06 08:46:22;;;;;;;;;;;;;;;;;;5031642;28;20000;-60
2021/05/06 08:48:48;;;;;;;;;;;;;;;;;;5031645;28;19905;-60
2021/05/06 08:51:14;;;;;;;;;;;;;;;;;;5031572;28;19964;-60
2021/05/06 08:53:40;;;;;;;;;;;;;;;;;;5031577;28;19905;-60
2021/05/06 08:56:07;;;;;;;;;;;;;;;;;;5031714;28;19910;-60
2021/05/06 08:58:33;;;;;;;;;;;;;;;;;;5031605;28;20275;-60
2021/05/06 09:00:59;;;;;;;;;;;;;;;;;;5031493;28;19912;-60
2021/05/06 09:03:26;;;;;;;;;;;;;;;;;;5031355;28;20382;-60
2021/05/06 09:05:52;;;;;;;;;;;;;;;;;;5034025;27;20000;-60
2021/05/06 09:08:18;;;;;;;;;;;;;;;;;;5031367;28;19913;-60
2021/05/06 09:10:44;;;;;;;;;;;;;;;;;;5031236;28;20355;-60
2021/05/06 09:13:11;;;;;;;;;;;;;;;;;;5031316;28;19995;-60
2021/05/06 09:15:37;;;;;;;;;;;;;;;;;;5031211;28;19912;-60
2021/05/06 09:18:03;;;;;;;;;;;;;;;;;;5031195;28;19978;-60
2021/05/06 09:20:29;;;;;;;;;;;;;;;;;;5031166;28;19955;-60
2021/05/06 09:22:56;;;;;;;;;;;;;;;;;;5031029;28;19905;-60
2021/05/06 09:25:22;;;;;;;;;;;;;;;;;;5031069;28;19958;-60
2021/05/06 09:27:48;;;;;;;;;;;;;;;;;;5031085;28;19963;-60
2021/05/06 09:30:15;;;;;;;;;;;;;;;;;;5030939;28;19958;-60
2021/05/06 09:32:41;;;;;;;;;;;;;;;;;;5031035;28;19905;-60
2021/05/06 09:35:07;;;;;;;;;;;;;;;;;;5030966;28;19928;-60
2021/05/06 09:37:33;;;;;;;;;;;;;;;;;;5030863;28;19908;-60
2021/05/06 09:40:00;;;;;;;;;;;;;;;;;;5030921;28;19912;-60
2021/05/06 09:42:27;;;;;;;;;;;;;;;;;;5030788;28;19905;-60
2021/05/06 09:44:53;;;;;;;;;;;;;;;;;;5030738;28;19905;-60
2021/05/06 09:47:19;;;;;;;;;;;;;;;;;;5030721;28;19912;-60
2021/05/06 09:49:46;;;;;;;;;;;;;;;;;;5030733;28;19906;-60
2021/05/06 09:52:12;;;;;;;;;;;;;;;;;;5030669;28;19913;-60
2021/05/06 09:54:38;;;;;;;;;;;;;;;;;;5030563;28;20418;-59
2021/05/06 09:57:04;;;;;;;;;;;;;;;;;;5030493;28;19913;-60
2021/05/06 09:59:31;;;;;;;;;;;;;;;;;;5030545;28;20290;-60
2021/05/06 10:01:57;;;;;;;;;;;;;;;;;;5030820;28;19905;-60
2021/05/06 10:04:24;;;;;;;;;;;;;;;;;;5030594;28;19951;-60
2021/05/06 10:06:57;;;;;;;;;;;;;;;;;;5033071;27;19917;-60
2021/05/06 10:09:23;;;;;;;;;;;;;;;;;;5030481;28;19921;-60
2021/05/06 10:11:50;;;;;;;;;;;;;;;;;;5030376;28;19936;-60
2021/05/06 10:14:16;;;;;;;;;;;;;;;;;;5029683;28;19944;-60
2021/05/06 10:16:42;;;;;;;;;;;;;;;;;;5030391;28;19905;-60
2021/05/06 10:19:08;;;;;;;;;;;;;;;;;;5030380;28;20283;-59
2021/05/06 10:21:35;;;;;;;;;;;;;;;;;;5030252;28;19943;-60
2021/05/06 10:24:01;;;;;;;;;;;;;;;;;;5030254;28;19911;-60
2021/05/06 10:26:27;;;;;;;;;;;;;;;;;;5030287;28;20256;-60
2021/05/06 10:28:54;;;;;;;;;;;;;;;;;;5030290;28;20366;-60
2021/05/06 10:31:20;;;;;;;;;;;;;;;;;;5030119;28;19927;-60
2021/05/06 10:33:46;;;;;;;;;;;;;;;;;;5030193;28;20301;-60
2021/05/06 10:36:13;;;;;;;;;;;;;;;;;;5030133;28;19905;-60
2021/05/06 10:38:39;;;;;;;;;;;;;;;;;;5030127;28;19905;-60
2021/05/06 10:41:06;;;;;;;;;;;;;;;;;;5030076;28;20347;-60
2021/05/06 10:43:32;;;;;;;;;;;;;;;;;;5030068;28;19905;-60
2021/05/06 10:45:58;;;;;;;;;;;;;;;;;;5030058;28;19992;-60
2021/05/06 10:48:25;;;;;;;;;;;;;;;;;;5030013;28;19905;-60
2021/05/06 10:50:51;;;;;;;;;;;;;;;;;;5029869;28;20039;-60
2021/05/06 10:53:17;;;;;;;;;;;;;;;;;;5012366;28;20279;-60
2021/05/06 10:55:44;;;;;;;;;;;;;;;;;;5029967;28;19963;-60
2021/05/06 10:58:10;;;;;;;;;;;;;;;;;;5029814;28;20338;-60
2021/05/06 11:00:36;;;;;;;;;;;;;;;;;;5029797;28;19950;-60
2021/05/06 11:03:03;;;;;;;;;;;;;;;;;;5029850;28;19905;-59
2021/05/06 11:05:29;;;;;;;;;;;;;;;;;;5029799;28;20046;-60
2021/05/06 11:07:55;;;;;;;;;;;;;;;;;;5033035;27;19924;-60
2021/05/06 11:10:22;;;;;;;;;;;;;;;;;;5029775;28;20388;-59
2021/05/06 11:12:48;;;;;;;;;;;;;;;;;;5029791;28;19905;-60
2021/05/06 11:15:14;;;;;;;;;;;;;;;;;;5029702;28;19905;-59
2021/05/06 11:17:41;;;;;;;;;;;;;;;;;;5029771;28;19919;-60
2021/05/06 11:20:08;;;;;;;;;;;;;;;;;;5029627;28;19931;-60
2021/05/06 11:22:34;;;;;;;;;;;;;;;;;;5029593;28;19952;-60
2021/05/06 11:25:00;;;;;;;;;;;;;;;;;;5029544;28;19911;-60
2021/05/06 11:27:26;;;;;;;;;;;;;;;;;;5032206;28;20300;-60
2021/05/06 11:29:53;;;;;;;;;;;;;;;;;;5032889;28;19905;-60
2021/05/06 11:32:19;;;;;;;;;;;;;;;;;;5032706;28;19919;-59
2021/05/06 11:34:45;;;;;;;;;;;;;;;;;;5032775;28;19905;-59
2021/05/06 11:37:12;;;;;;;;;;;;;;;;;;5032848;28;19912;-60
2021/05/06 11:39:38;;;;;;;;;;;;;;;;;;5032766;28;19905;-59
2021/05/06 11:42:04;;;;;;;;;;;;;;;;;;5032724;28;19909;-59
2021/05/06 11:44:30;;;;;;;;;;;;;;;;;;5032621;28;20317;-59
2021/05/06 11:46:57;;;;;;;;;;;;;;;;;;5032645;28;19999;-59
2021/05/06 11:49:24;;;;;;;;;;;;;;;;;;5032558;28;19962;-59
2021/05/06 11:51:51;;;;;;;;;;;;;;;;;;5032477;28;20012;-60
2021/05/06 11:54:22;;;;;;;;;;;;;;;;;;5032794;28;19905;-59
2021/05/06 11:56:49;;;;;;;;;;;;;;;;;;5032411;28;19905;-59
2021/05/06 11:59:15;;;;;;;;;;;;;;;;;;5032496;28;19910;-60
2021/05/06 12:01:41;;;;;;;;;;;;;;;;;;5032401;28;20291;-60
2021/05/06 12:04:07;;;;;;;;;;;;;;;;;;5032390;28;19912;-60
2021/05/06 12:06:34;;;;;;;;;;;;;;;;;;5018147;27;20390;-60
2021/05/06 12:09:00;;;;;;;;;;;;;;;;;;5032330;28;19905;-60
2021/05/06 12:11:26;;;;;;;;;;;;;;;;;;5032137;28;19953;-61
2021/05/06 12:13:53;;;;;;;;;;;;;;;;;;5032175;28;19905;-61
2021/05/06 12:16:19;;;;;;;;;;;;;;;;;;5032264;28;19991;-61
2021/05/06 12:18:46;;;;;;;;;;;;;;;;;;5032143;28;20065;-61
2021/05/06 12:21:12;;;;;;;;;;;;;;;;;;5032134;28;19905;-61
2021/05/06 12:23:38;;;;;;;;;;;;;;;;;;5032099;28;19905;-61
2021/05/06 12:26:04;;;;;;;;;;;;;;;;;;5031991;28;20365;-61
2021/05/06 12:28:31;;;;;;;;;;;;;;;;;;5032041;28;19905;-61
2021/05/06 12:30:57;;;;;;;;;;;;;;;;;;5031879;28;19952;-61
2021/05/06 12:33:23;;;;;;;;;;;;;;;;;;5032255;28;19920;-61
2021/05/06 12:35:50;;;;;;;;;;;;;;;;;;5031850;28;19923;-61
2021/05/06 12:38:16;;;;;;;;;;;;;;;;;;5031694;28;19905;-61
2021/05/06 12:40:42;;;;;;;;;;;;;;;;;;5031858;28;19950;-61
2021/05/06 12:43:09;;;;;;;;;;;;;;;;;;5031749;28;19965;-61
2021/05/06 12:45:35;;;;;;;;;;;;;;;;;;5031804;28;19905;-61
2021/05/06 12:48:01;;;;;;;;;;;;;;;;;;5031770;28;20236;-61
2021/05/06 12:50:32;;;;;;;;;;;;;;;;;;5031626;28;19905;-61
2021/05/06 12:52:58;;;;;;;;;;;;;;;;;;5031639;28;20339;-61
2021/05/06 12:55:25;;;;;;;;;;;;;;;;;;5031616;28;19905;-61
2021/05/06 12:57:51;;;;;;;;;;;;;;;;;;5031550;28;19905;-61
2021/05/06 13:00:17;;;;;;;;;;;;;;;;;;5031518;28;19912;-61
2021/05/06 13:02:43;;;;;;;;;;;;;;;;;;5031503;28;19909;-61
2021/05/06 13:05:10;;;;;;;;;;;;;;;;;;5031475;28;20260;-61
2021/05/06 13:07:36;;;;;;;;;;;;;;;;;;5034634;27;19917;-61
2021/05/06 13:10:02;;;;;;;;;;;;;;;;;;5031332;28;19958;-61
2021/05/06 13:12:29;;;;;;;;;;;;;;;;;;5031282;28;20028;-61
2021/05/06 13:14:55;;;;;;;;;;;;;;;;;;5013611;28;19912;-61
2021/05/06 13:17:21;;;;;;;;;;;;;;;;;;5031211;28;19905;-61
2021/05/06 13:19:47;;;;;;;;;;;;;;;;;;5031229;28;20332;-61
2021/05/06 13:22:14;;;;;;;;;;;;;;;;;;5031103;28;19961;-61
2021/05/06 13:24:40;;;;;;;;;;;;;;;;;;5031144;28;19905;-61
2021/05/06 13:27:07;;;;;;;;;;;;;;;;;;5013768;28;20391;-61
2021/05/06 13:29:33;;;;;;;;;;;;;;;;;;5031375;28;19905;-62
2021/05/06 13:31:59;;;;;;;;;;;;;;;;;;5030973;28;19920;-61
2021/05/06 13:34:27;;;;;;;;;;;;;;;;;;5030916;28;19909;-61
2021/05/06 13:36:53;;;;;;;;;;;;;;;;;;5031277;28;19912;-61
2021/05/06 13:39:19;;;;;;;;;;;;;;;;;;5030816;28;19991;-61
2021/05/06 13:41:47;;;;;;;;;;;;;;;;;;5030922;28;20185;-61
2021/05/06 13:44:13;;;;;;;;;;;;;;;;;;5030808;28;19912;-61
2021/05/06 13:46:39;;;;;;;;;;;;;;;;;;5030807;28;19987;-62
2021/05/06 13:49:05;;;;;;;;;;;;;;;;;;5029800;28;19912;-61
2021/05/06 13:51:32;;;;;;;;;;;;;;;;;;5030636;28;19913;-61
2021/05/06 13:53:58;;;;;;;;;;;;;;;;;;5030703;28;20179;-63
2021/05/06 13:56:24;;;;;;;;;;;;;;;;;;5030666;28;19913;-64
2021/05/06 13:58:50;;;;;;;;;;;;;;;;;;5030665;28;19905;-64
2021/05/06 14:01:17;;;;;;;;;;;;;;;;;;5030620;28;19992;-64
2021/05/06 14:03:43;;;;;;;;;;;;;;;;;;5030847;28;19958;-63
2021/05/06 14:06:09;;;;;;;;;;;;;;;;;;5033347;27;20245;-64
2021/05/06 14:08:36;;;;;;;;;;;;;;;;;;5030503;28;20352;-63
2021/05/06 14:11:02;;;;;;;;;;;;;;;;;;5030411;28;19921;-64
2021/05/06 14:13:28;;;;;;;;;;;;;;;;;;5030457;28;20271;-62
2021/05/06 14:15:55;;;;;;;;;;;;;;;;;;5030398;28;20283;-62
2021/05/06 14:18:21;;;;;;;;;;;;;;;;;;5030401;28;19905;-62
2021/05/06 14:20:48;;;;;;;;;;;;;;;;;;5030359;28;19905;-62
2021/05/06 14:23:16;;;;;;;;;;;;;;;;;;5030244;28;19909;-62
2021/05/06 14:25:42;;;;;;;;;;;;;;;;;;5030234;28;19944;-62
2021/05/06 14:28:08;;;;;;;;;;;;;;;;;;5030200;28;19905;-62
2021/05/06 14:30:35;;;;;;;;;;;;;;;;;;5030232;28;20309;-63
2021/05/06 14:33:01;;;;;;;;;;;;;;;;;;5030135;28;19906;-62
2021/05/06 14:35:27;;;;;;;;;;;;;;;;;;5030215;28;19905;-62
2021/05/06 14:37:53;;;;;;;;;;;;;;;;;;5030167;28;19916;-62
2021/05/06 14:40:20;;;;;;;;;;;;;;;;;;5030164;28;19905;-63
2021/05/06 14:42:46;;;;;;;;;;;;;;;;;;5030048;28;19905;-63
2021/05/06 14:45:12;;;;;;;;;;;;;;;;;;5030091;28;20374;-63
2021/05/06 14:47:39;;;;;;;;;;;;;;;;;;5030012;28;19905;-63
2021/05/06 14:50:05;;;;;;;;;;;;;;;;;;5030049;28;20116;-63
2021/05/06 14:52:31;;;;;;;;;;;;;;;;;;5029951;28;20315;-62
2021/05/06 14:54:57;;;;;;;;;;;;;;;;;;5029940;28;19905;-63
2021/05/06 14:57:24;;;;;;;;;;;;;;;;;;5029829;28;19909;-63
2021/05/06 14:59:50;;;;;;;;;;;;;;;;;;5030359;28;19927;-63
2021/05/06 15:02:16;;;;;;;;;;;;;;;;;;5033357;28;19905;-63
2021/05/06 15:04:42;;;;;;;;;;;;;;;;;;5033338;28;19917;-63
2021/05/06 15:07:09;;;;;;;;;;;;;;;;;;5035896;27;19999;-63
2021/05/06 15:09:36;;;;;;;;;;;;;;;;;;5033224;28;19909;-59
2021/05/06 15:12:02;;;;;;;;;;;;;;;;;;5033119;28;20325;-59
2021/05/06 15:14:29;;;;;;;;;;;;;;;;;;5033136;28;19905;-61
2021/05/06 15:16:55;;;;;;;;;;;;;;;;;;5033141;28;19909;-61
2021/05/06 15:19:21;;;;;;;;;;;;;;;;;;5033310;28;19962;-61
2021/05/06 15:21:48;;;;;;;;;;;;;;;;;;5033279;28;19905;-59
2021/05/06 15:24:14;;;;;;;;;;;;;;;;;;5032899;28;19916;-59
2021/05/06 15:26:40;;;;;;;;;;;;;;;;;;5032904;28;20377;-59
2021/05/06 15:29:07;;;;;;;;;;;;;;;;;;5032954;28;19913;-59
2021/05/06 15:31:33;;;;;;;;;;;;;;;;;;5032748;28;20297;-59
2021/05/06 15:33:59;;;;;;;;;;;;;;;;;;5032721;28;19905;-58
2021/05/06 15:36:25;;;;;;;;;;;;;;;;;;5032747;28;19951;-58
2021/05/06 15:38:52;;;;;;;;;;;;;;;;;;5032749;28;19909;-56
2021/05/06 15:41:18;;;;;;;;;;;;;;;;;;5032714;28;20275;-57
2021/05/06 15:43:44;;;;;;;;;;;;;;;;;;5032666;28;20252;-58
2021/05/06 15:46:11;;;;;;;;;;;;;;;;;;5032689;28;19905;-56
2021/05/06 15:48:37;;;;;;;;;;;;;;;;;;5032650;28;20274;-59
2021/05/06 15:51:03;;;;;;;;;;;;;;;;;;5032527;28;19913;-59
2021/05/06 15:53:30;;;;;;;;;;;;;;;;;;5032522;28;19905;-59
2021/05/06 15:55:57;;;;;;;;;;;;;;;;;;5032415;28;19951;-56
2021/05/06 15:58:23;;;;;;;;;;;;;;;;;;5032315;28;20355;-58
2021/05/06 16:00:51;;;;;;;;;;;;;;;;;;5032333;28;19905;-57
2021/05/06 16:03:18;;;;;;;;;;;;;;;;;;5032248;28;19912;-57
2021/05/06 16:05:50;;;;;;;;;;;;;;;;;;5032332;28;19909;-57
2021/05/06 16:08:16;;;;;;;;;;;;;;;;;;5035072;27;19917;-57
2021/05/06 16:10:43;;;;;;;;;;;;;;;;;;5032092;28;20066;-57
2021/05/06 16:13:09;;;;;;;;;;;;;;;;;;5031375;28;19912;-58
2021/05/06 16:15:35;;;;;;;;;;;;;;;;;;5032267;28;19909;-57
2021/05/06 16:18:01;;;;;;;;;;;;;;;;;;5032104;28;19909;-58
2021/05/06 16:20:32;;;;;;;;;;;;;;;;;;5032396;28;20322;-57
2021/05/06 16:22:58;;;;;;;;;;;;;;;;;;5032062;28;19958;-59
2021/05/06 16:25:25;;;;;;;;;;;;;;;;;;5031949;28;20408;-58
2021/05/06 16:27:51;;;;;;;;;;;;;;;;;;5032053;28;20110;-58
2021/05/06 16:30:17;;;;;;;;;;;;;;;;;;5031925;28;19905;-59
2021/05/06 16:32:45;;;;;;;;;;;;;;;;;;5031714;28;19967;-59
2021/05/06 16:35:18;;;;;;;;;;;;;;;;;;5031788;28;19940;-59
2021/05/06 16:37:57;;;;;;;;;;;;;;;;;;5032237;28;19941;-59
2021/05/06 16:45:42;;;;;;;;;;;;;;;;;;5031705;28;19944;-59
2021/05/06 16:48:10;;;;;;;;;;;;;;;;;;5031643;28;20083;-59
2021/05/06 16:50:39;;;;;;;;;;;;;;;;;;5032096;28;19905;-59
2021/05/06 16:53:13;;;;;;;;;;;;;;;;;;5031520;28;19905;-59
2021/05/06 16:55:40;;;;;;;;;;;;;;;;;;5031488;28;20271;-59
2021/05/06 16:58:11;;;;;;;;;;;;;;;;;;5031664;28;19999;-59
2021/05/06 17:00:40;;;;;;;;;;;;;;;;;;5031451;28;20263;-59
2021/05/06 17:03:14;;;;;;;;;;;;;;;;;;5031404;28;19905;-59
2021/05/06 17:05:42;;;;;;;;;;;;;;;;;;5031708;28;20310;-59
2021/05/06 17:08:10;;;;;;;;;;;;;;;;;;5034074;27;19917;-59
2021/05/06 17:10:45;;;;;;;;;;;;;;;;;;5031447;28;19905;-59
2021/05/06 17:13:12;;;;;;;;;;;;;;;;;;5031256;28;20410;-59
2021/05/06 17:15:43;;;;;;;;;;;;;;;;;;5031379;28;19905;-59
2021/05/06 17:18:11;;;;;;;;;;;;;;;;;;5031189;28;19966;-59
2021/05/06 17:20:39;;;;;;;;;;;;;;;;;;5031173;28;19927;-59
2021/05/06 17:23:07;;;;;;;;;;;;;;;;;;5030993;28;19938;-59
2021/05/06 17:25:37;;;;;;;;;;;;;;;;;;5031108;28;20003;-59
2021/05/06 17:28:04;;;;;;;;;;;;;;;;;;5031016;28;19909;-59
2021/05/06 17:30:30;;;;;;;;;;;;;;;;;;5013360;28;19908;-59
2021/05/06 17:33:02;;;;;;;;;;;;;;;;;;5030900;28;19912;-59
2021/05/06 17:35:28;;;;;;;;;;;;;;;;;;5030908;28;19958;-59
2021/05/06 17:37:54;;;;;;;;;;;;;;;;;;5030928;28;20347;-59
2021/05/06 17:40:23;;;;;;;;;;;;;;;;;;5030891;28;19984;-59
2021/05/06 17:42:49;;;;;;;;;;;;;;;;;;5013183;28;19905;-59
2021/05/06 17:45:16;;;;;;;;;;;;;;;;;;5030872;28;20355;-61
2021/05/06 17:47:42;;;;;;;;;;;;;;;;;;5030752;28;20371;-60
2021/05/06 17:50:08;;;;;;;;;;;;;;;;;;5030633;28;19912;-61
2021/05/06 17:52:35;;;;;;;;;;;;;;;;;;5030542;28;19932;-61
2021/05/06 17:55:01;;;;;;;;;;;;;;;;;;5030619;28;20295;-59
2021/05/06 17:57:28;;;;;;;;;;;;;;;;;;5030564;28;20361;-59
2021/05/06 17:59:54;;;;;;;;;;;;;;;;;;5030556;28;19913;-57
2021/05/06 18:02:20;;;;;;;;;;;;;;;;;;5030522;28;19997;-57
2021/05/06 18:04:55;;;;;;;;;;;;;;;;;;5030282;28;20019;-59
2021/05/06 18:07:21;;;;;;;;;;;;;;;;;;5032929;27;19917;-59
2021/05/06 18:10:00;;;;;;;;;;;;;;;;;;5030450;28;19950;-59
2021/05/06 18:12:26;;;;;;;;;;;;;;;;;;5030411;28;19919;-59
2021/05/06 18:14:53;;;;;;;;;;;;;;;;;;5030470;28;19906;-59
2021/05/06 18:17:19;;;;;;;;;;;;;;;;;;5030354;28;19905;-59
2021/05/06 18:19:45;;;;;;;;;;;;;;;;;;5030371;28;19945;-59
2021/05/06 18:22:12;;;;;;;;;;;;;;;;;;5030309;28;19919;-59
2021/05/06 18:24:38;;;;;;;;;;;;;;;;;;5030298;28;20000;-58
2021/05/06 18:27:04;;;;;;;;;;;;;;;;;;5030276;28;20327;-59
2021/05/06 18:29:31;;;;;;;;;;;;;;;;;;5030266;28;19905;-59
2021/05/06 18:31:57;;;;;;;;;;;;;;;;;;5030229;28;19913;-59
2021/05/06 18:34:23;;;;;;;;;;;;;;;;;;5030139;28;19995;-59
2021/05/06 18:36:50;;;;;;;;;;;;;;;;;;5033462;28;19912;-59
2021/05/06 18:39:16;;;;;;;;;;;;;;;;;;5033792;28;20270;-59
2021/05/06 18:41:42;;;;;;;;;;;;;;;;;;5033609;28;19905;-59
2021/05/06 18:44:10;;;;;;;;;;;;;;;;;;5033572;28;20377;-59
2021/05/06 18:46:40;;;;;;;;;;;;;;;;;;5033614;28;19905;-59
2021/05/06 18:49:06;;;;;;;;;;;;;;;;;;5033567;28;19905;-59
2021/05/06 18:51:32;;;;;;;;;;;;;;;;;;5033471;28;20450;-59
2021/05/06 18:53:59;;;;;;;;;;;;;;;;;;5033363;28;19905;-59
2021/05/06 18:56:25;;;;;;;;;;;;;;;;;;5033251;28;20274;-59
2021/05/06 18:58:51;;;;;;;;;;;;;;;;;;5033384;28;19912;-60
2021/05/06 19:01:17;;;;;;;;;;;;;;;;;;5033388;28;20271;-59
2021/05/06 19:03:44;;;;;;;;;;;;;;;;;;5033231;28;19919;-58
2021/05/06 19:06:10;;;;;;;;;;;;;;;;;;5033297;28;19905;-59
2021/05/06 19:08:36;;;;;;;;;;;;;;;;;;5036076;27;19925;-59
2021/05/06 19:11:03;;;;;;;;;;;;;;;;;;5033048;28;19927;-59
2021/05/06 19:13:29;;;;;;;;;;;;;;;;;;5033199;28;19911;-61
2021/05/06 19:15:56;;;;;;;;;;;;;;;;;;5033081;28;19905;-61
2021/05/06 19:18:22;;;;;;;;;;;;;;;;;;5033045;28;19928;-61
2021/05/06 19:20:48;;;;;;;;;;;;;;;;;;5015463;28;20348;-62
2021/05/06 19:23:15;;;;;;;;;;;;;;;;;;5032972;28;19909;-59
2021/05/06 19:25:41;;;;;;;;;;;;;;;;;;5033065;28;20256;-59
2021/05/06 19:28:07;;;;;;;;;;;;;;;;;;5032946;28;19949;-59
2021/05/06 19:30:34;;;;;;;;;;;;;;;;;;5032873;28;19958;-59
2021/05/06 19:33:00;;;;;;;;;;;;;;;;;;5032822;28;20307;-59
2021/05/06 19:35:26;;;;;;;;;;;;;;;;;;5032843;28;19905;-58
2021/05/06 19:37:53;;;;;;;;;;;;;;;;;;5032873;28;19913;-60
2021/05/06 19:40:19;;;;;;;;;;;;;;;;;;5032760;28;19905;-59
2021/05/06 19:42:53;;;;;;;;;;;;;;;;;;5032660;28;19912;-59